Aviation Digital Data Service (ADDS)

Output produced by METARs form (1404 UTC 24 August 2019)
found at http://www.aviationweather.gov/metar/data/
 
METAR text: SGAS 241400Z 06011KT CAVOK 25/10 Q1019
Conditions at: SGAS (ASUNCION/SILVIO , PY) observed 1400 UTC 24 August 2019
Temperature: 25.0°C (77°F)
Dewpoint: 10.0°C (50°F) [RH = 39%]
Pressure (altimeter): 30.09 inches Hg (1019.0 mb)
Winds: from the ENE (60 degrees) at 13 MPH (11 knots; 5.7 m/s)
Visibility: 6 or more miles (10+ km)
Ceiling: ceiling and visibility are OK
Clouds: unknown
Weather: no significant weather observed at this time

METAR text: SGAS 241330Z 08008KT 020V100 CAVOK 24/10 Q1019
Conditions at: SGAS (ASUNCION/SILVIO , PY) observed 1330 UTC 24 August 2019
Temperature: 24.0°C (75°F)
Dewpoint: 10.0°C (50°F) [RH = 41%]
Pressure (altimeter): 30.09 inches Hg (1019.0 mb)
Winds: from the E (80 degrees) at 9 MPH (8 knots; 4.1 m/s)
Visibility: 6 or more miles (10+ km)
Ceiling: ceiling and visibility are OK
Clouds: unknown
Weather: no significant weather observed at this time

METAR text: SGAS 241300Z 09007KT 040V120 CAVOK 22/10 Q1020
Conditions at: SGAS (ASUNCION/SILVIO , PY) observed 1300 UTC 24 August 2019
Temperature: 22.0°C (72°F)
Dewpoint: 10.0°C (50°F) [RH = 46%]
Pressure (altimeter): 30.12 inches Hg (1020.0 mb)
Winds: from the E (90 degrees) at 8 MPH (7 knots; 3.6 m/s)
Visibility: 6 or more miles (10+ km)
Ceiling: ceiling and visibility are OK
Clouds: unknown
Weather: no significant weather observed at this time

METAR text: SGAS 241230Z 08005KT CAVOK 21/09 Q1020
Conditions at: SGAS (ASUNCION/SILVIO , PY) observed 1230 UTC 24 August 2019
Temperature: 21.0°C (70°F)
Dewpoint: 9.0°C (48°F) [RH = 46%]
Pressure (altimeter): 30.12 inches Hg (1020.0 mb)
Winds: from the E (80 degrees) at 6 MPH (5 knots; 2.6 m/s)
Visibility: 6 or more miles (10+ km)
Ceiling: ceiling and visibility are OK
Clouds: unknown
Weather: no significant weather observed at this time

METAR text: SGAS 241200Z 10003KT CAVOK 19/09 Q1019
Conditions at: SGAS (ASUNCION/SILVIO , PY) observed 1200 UTC 24 August 2019
Temperature: 19.0°C (66°F)
Dewpoint: 9.0°C (48°F) [RH = 52%]
Pressure (altimeter): 30.09 inches Hg (1019.0 mb)
Winds: from the E (100 degrees) at 3 MPH (3 knots; 1.5 m/s)
Visibility: 6 or more miles (10+ km)
Ceiling: ceiling and visibility are OK
Clouds: unknown
Weather: no significant weather observed at this time

METAR text: SGAS 241130Z VRB02KT CAVOK 18/09 Q1019
Conditions at: SGAS (ASUNCION/SILVIO , PY) observed 1130 UTC 24 August 2019
Temperature: 18.0°C (64°F)
Dewpoint: 9.0°C (48°F) [RH = 56%]
Pressure (altimeter): 30.09 inches Hg (1019.0 mb)
Winds: variable direction winds at 2 MPH (2 knots; 1.0 m/s)
Visibility: 6 or more miles (10+ km)
Ceiling: ceiling and visibility are OK
Clouds: unknown
Weather: no significant weather observed at this time

METAR text: SGAS 241100Z 00000KT CAVOK 13/09 Q1019
Conditions at: SGAS (ASUNCION/SILVIO , PY) observed 1100 UTC 24 August 2019
Temperature: 13.0°C (55°F)
Dewpoint: 9.0°C (48°F) [RH = 77%]
Pressure (altimeter): 30.09 inches Hg (1019.0 mb)
Winds: calm
Visibility: 6 or more miles (10+ km)
Ceiling: ceiling and visibility are OK
Clouds: unknown
Weather: no significant weather observed at this time

METAR text: SGAS 241000Z VRB03KT CAVOK 10/07 Q1018
Conditions at: SGAS (ASUNCION/SILVIO , PY) observed 1000 UTC 24 August 2019
Temperature: 10.0°C (50°F)
Dewpoint: 7.0°C (45°F) [RH = 82%]
Pressure (altimeter): 30.06 inches Hg (1018.0 mb)
Winds: variable direction winds at 3 MPH (3 knots; 1.5 m/s)
Visibility: 6 or more miles (10+ km)
Ceiling: ceiling and visibility are OK
Clouds: unknown
Weather: no significant weather observed at this time

METAR text: SGAS 240900Z VRB03KT CAVOK 11/07 Q1018
Conditions at: SGAS (ASUNCION/SILVIO , PY) observed 0900 UTC 24 August 2019
Temperature: 11.0°C (52°F)
Dewpoint: 7.0°C (45°F) [RH = 76%]
Pressure (altimeter): 30.06 inches Hg (1018.0 mb)
Winds: variable direction winds at 3 MPH (3 knots; 1.5 m/s)
Visibility: 6 or more miles (10+ km)
Ceiling: ceiling and visibility are OK
Clouds: unknown
Weather: no significant weather observed at this time

METAR text: SGAS 240800Z VRB04KT CAVOK 13/08 Q1018
Conditions at: SGAS (ASUNCION/SILVIO , PY) observed 0800 UTC 24 August 2019
Temperature: 13.0°C (55°F)
Dewpoint: 8.0°C (46°F) [RH = 72%]
Pressure (altimeter): 30.06 inches Hg (1018.0 mb)
Winds: variable direction winds at 5 MPH (4 knots; 2.1 m/s)
Visibility: 6 or more miles (10+ km)
Ceiling: ceiling and visibility are OK
Clouds: unknown
Weather: no significant weather observed at this time

METAR text: SGAS 240700Z VRB06KT CAVOK 15/08 Q1018
Conditions at: SGAS (ASUNCION/SILVIO , PY) observed 0700 UTC 24 August 2019
Temperature: 15.0°C (59°F)
Dewpoint: 8.0°C (46°F) [RH = 63%]
Pressure (altimeter): 30.06 inches Hg (1018.0 mb)
Winds: variable direction winds at 7 MPH (6 knots; 3.1 m/s)
Visibility: 6 or more miles (10+ km)
Ceiling: ceiling and visibility are OK
Clouds: unknown
Weather: no significant weather observed at this time

METAR text: SGAS 240600Z 14008KT CAVOK 15/08 Q1018
Conditions at: SGAS (ASUNCION/SILVIO , PY) observed 0600 UTC 24 August 2019
Temperature: 15.0°C (59°F)
Dewpoint: 8.0°C (46°F) [RH = 63%]
Pressure (altimeter): 30.06 inches Hg (1018.0 mb)
Winds: from the SE (140 degrees) at 9 MPH (8 knots; 4.1 m/s)
Visibility: 6 or more miles (10+ km)
Ceiling: ceiling and visibility are OK
Clouds: unknown
Weather: no significant weather observed at this time

METAR text: SGAS 240500Z VRB05KT 9000 NSC 13/08 Q1018
Conditions at: SGAS (ASUNCION/SILVIO , PY) observed 0500 UTC 24 August 2019
Temperature: 13.0°C (55°F)
Dewpoint: 8.0°C (46°F) [RH = 72%]
Pressure (altimeter): 30.06 inches Hg (1018.0 mb)
Winds: variable direction winds at 6 MPH (5 knots; 2.6 m/s)
Visibility: 6 miles ( 9 km)
Ceiling: at least 12,000 feet AGL
Clouds: sky clear below 12,000 feet AGL
Weather: no significant weather observed at this time

METAR text: SGAS 240400Z VRB03KT 8000 NSC 12/08 Q1019
Conditions at: SGAS (ASUNCION/SILVIO , PY) observed 0400 UTC 24 August 2019
Temperature: 12.0°C (54°F)
Dewpoint: 8.0°C (46°F) [RH = 76%]
Pressure (altimeter): 30.09 inches Hg (1019.0 mb)
Winds: variable direction winds at 3 MPH (3 knots; 1.5 m/s)
Visibility: 5 miles ( 8 km)
Ceiling: at least 12,000 feet AGL
Clouds: sky clear below 12,000 feet AGL
Weather: no significant weather observed at this time

METAR text: SGAS 240300Z VRB03KT 7000 NSC 12/08 Q1019
Conditions at: SGAS (ASUNCION/SILVIO , PY) observed 0300 UTC 24 August 2019
Temperature: 12.0°C (54°F)
Dewpoint: 8.0°C (46°F) [RH = 76%]
Pressure (altimeter): 30.09 inches Hg (1019.0 mb)
Winds: variable direction winds at 3 MPH (3 knots; 1.5 m/s)
Visibility: 4 miles ( 7 km)
Ceiling: at least 12,000 feet AGL
Clouds: sky clear below 12,000 feet AGL
Weather: no significant weather observed at this time

METAR text: SGAS 240200Z VRB03KT 7000 NSC 13/09 Q1019
Conditions at: SGAS (ASUNCION/SILVIO , PY) observed 0200 UTC 24 August 2019
Temperature: 13.0°C (55°F)
Dewpoint: 9.0°C (48°F) [RH = 77%]
Pressure (altimeter): 30.09 inches Hg (1019.0 mb)
Winds: variable direction winds at 3 MPH (3 knots; 1.5 m/s)
Visibility: 4 miles ( 7 km)
Ceiling: at least 12,000 feet AGL
Clouds: sky clear below 12,000 feet AGL
Weather: no significant weather observed at this time

METAR text: SGAS 240100Z VRB03KT 7000 NSC 14/09 Q1019
Conditions at: SGAS (ASUNCION/SILVIO , PY) observed 0100 UTC 24 August 2019
Temperature: 14.0°C (57°F)
Dewpoint: 9.0°C (48°F) [RH = 72%]
Pressure (altimeter): 30.09 inches Hg (1019.0 mb)
Winds: variable direction winds at 3 MPH (3 knots; 1.5 m/s)
Visibility: 4 miles ( 7 km)
Ceiling: at least 12,000 feet AGL
Clouds: sky clear below 12,000 feet AGL
Weather: no significant weather observed at this time

METAR text: SGAS 240000Z VRB03KT 7000 NSC 14/10 Q1019
Conditions at: SGAS (ASUNCION/SILVIO , PY) observed 0000 UTC 24 August 2019
Temperature: 14.0°C (57°F)
Dewpoint: 10.0°C (50°F) [RH = 77%]
Pressure (altimeter): 30.09 inches Hg (1019.0 mb)
Winds: variable direction winds at 3 MPH (3 knots; 1.5 m/s)
Visibility: 4 miles ( 7 km)
Ceiling: at least 12,000 feet AGL
Clouds: sky clear below 12,000 feet AGL
Weather: no significant weather observed at this time

METAR text: SGAS 232300Z VRB03KT 8000 NSC 17/09 Q1019
Conditions at: SGAS (ASUNCION/SILVIO , PY) observed 2300 UTC 23 August 2019
Temperature: 17.0°C (63°F)
Dewpoint: 9.0°C (48°F) [RH = 59%]
Pressure (altimeter): 30.09 inches Hg (1019.0 mb)
Winds: variable direction winds at 3 MPH (3 knots; 1.5 m/s)
Visibility: 5 miles ( 8 km)
Ceiling: at least 12,000 feet AGL
Clouds: sky clear below 12,000 feet AGL
Weather: no significant weather observed at this time

METAR text: SGAS 232200Z 15003KT 9000 NSC 21/08 Q1019
Conditions at: SGAS (ASUNCION/SILVIO , PY) observed 2200 UTC 23 August 2019
Temperature: 21.0°C (70°F)
Dewpoint: 8.0°C (46°F) [RH = 43%]
Pressure (altimeter): 30.09 inches Hg (1019.0 mb)
Winds: from the SSE (150 degrees) at 3 MPH (3 knots; 1.5 m/s)
Visibility: 6 miles ( 9 km)
Ceiling: at least 12,000 feet AGL
Clouds: sky clear below 12,000 feet AGL
Weather: no significant weather observed at this time

METAR text: SGAS 232100Z 15004KT CAVOK 25/08 Q1019
Conditions at: SGAS (ASUNCION/SILVIO , PY) observed 2100 UTC 23 August 2019
Temperature: 25.0°C (77°F)
Dewpoint: 8.0°C (46°F) [RH = 34%]
Pressure (altimeter): 30.09 inches Hg (1019.0 mb)
Winds: from the SSE (150 degrees) at 5 MPH (4 knots; 2.1 m/s)
Visibility: 6 or more miles (10+ km)
Ceiling: ceiling and visibility are OK
Clouds: unknown
Weather: no significant weather observed at this time

METAR text: SGAS 232000Z 17006KT 140V210 CAVOK 26/07 Q1020
Conditions at: SGAS (ASUNCION/SILVIO , PY) observed 2000 UTC 23 August 2019
Temperature: 26.0°C (79°F)
Dewpoint: 7.0°C (45°F) [RH = 30%]
Pressure (altimeter): 30.12 inches Hg (1020.0 mb)
Winds: from the S (170 degrees) at 7 MPH (6 knots; 3.1 m/s)
Visibility: 6 or more miles (10+ km)
Ceiling: ceiling and visibility are OK
Clouds: unknown
Weather: no significant weather observed at this time

METAR text: SGAS 231900Z VRB03KT CAVOK 26/06 Q1020
Conditions at: SGAS (ASUNCION/SILVIO , PY) observed 1900 UTC 23 August 2019
Temperature: 26.0°C (79°F)
Dewpoint: 6.0°C (43°F) [RH = 28%]
Pressure (altimeter): 30.12 inches Hg (1020.0 mb)
Winds: variable direction winds at 3 MPH (3 knots; 1.5 m/s)
Visibility: 6 or more miles (10+ km)
Ceiling: ceiling and visibility are OK
Clouds: unknown
Weather: no significant weather observed at this time

METAR text: SGAS 231800Z VRB03KT CAVOK 26/06 Q1021
Conditions at: SGAS (ASUNCION/SILVIO , PY) observed 1800 UTC 23 August 2019
Temperature: 26.0°C (79°F)
Dewpoint: 6.0°C (43°F) [RH = 28%]
Pressure (altimeter): 30.15 inches Hg (1021.0 mb)
Winds: variable direction winds at 3 MPH (3 knots; 1.5 m/s)
Visibility: 6 or more miles (10+ km)
Ceiling: ceiling and visibility are OK
Clouds: unknown
Weather: no significant weather observed at this time

METAR text: SGAS 231700Z VRB03KT CAVOK 25/06 Q1022
Conditions at: SGAS (ASUNCION/SILVIO , PY) observed 1700 UTC 23 August 2019
Temperature: 25.0°C (77°F)
Dewpoint: 6.0°C (43°F) [RH = 30%]
Pressure (altimeter): 30.18 inches Hg (1022.0 mb)
Winds: variable direction winds at 3 MPH (3 knots; 1.5 m/s)
Visibility: 6 or more miles (10+ km)
Ceiling: ceiling and visibility are OK
Clouds: unknown
Weather: no significant weather observed at this time

METAR text: SGAS 231600Z VRB05KT CAVOK 24/06 Q1023
Conditions at: SGAS (ASUNCION/SILVIO , PY) observed 1600 UTC 23 August 2019
Temperature: 24.0°C (75°F)
Dewpoint: 6.0°C (43°F) [RH = 31%]
Pressure (altimeter): 30.21 inches Hg (1023.0 mb)
Winds: variable direction winds at 6 MPH (5 knots; 2.6 m/s)
Visibility: 6 or more miles (10+ km)
Ceiling: ceiling and visibility are OK
Clouds: unknown
Weather: no significant weather observed at this time

METAR text: SGAS 231500Z VRB06KT CAVOK 22/07 Q1024
Conditions at: SGAS (ASUNCION/SILVIO , PY) observed 1500 UTC 23 August 2019
Temperature: 22.0°C (72°F)
Dewpoint: 7.0°C (45°F) [RH = 38%]
Pressure (altimeter): 30.24 inches Hg (1024.0 mb)
Winds: variable direction winds at 7 MPH (6 knots; 3.1 m/s)
Visibility: 6 or more miles (10+ km)
Ceiling: ceiling and visibility are OK
Clouds: unknown
Weather: no significant weather observed at this time

METAR text: SGAS 231400Z VRB05KT CAVOK 19/09 Q1024
Conditions at: SGAS (ASUNCION/SILVIO , PY) observed 1400 UTC 23 August 2019
Temperature: 19.0°C (66°F)
Dewpoint: 9.0°C (48°F) [RH = 52%]
Pressure (altimeter): 30.24 inches Hg (1024.0 mb)
Winds: variable direction winds at 6 MPH (5 knots; 2.6 m/s)
Visibility: 6 or more miles (10+ km)
Ceiling: ceiling and visibility are OK
Clouds: unknown
Weather: no significant weather observed at this time

METAR text: SGAS 231330Z VRB06KT CAVOK 18/09 Q1024
Conditions at: SGAS (ASUNCION/SILVIO , PY) observed 1330 UTC 23 August 2019
Temperature: 18.0°C (64°F)
Dewpoint: 9.0°C (48°F) [RH = 56%]
Pressure (altimeter): 30.24 inches Hg (1024.0 mb)
Winds: variable direction winds at 7 MPH (6 knots; 3.1 m/s)
Visibility: 6 or more miles (10+ km)
Ceiling: ceiling and visibility are OK
Clouds: unknown
Weather: no significant weather observed at this time

METAR text: SGAS 231300Z VRB05KT 9000 NSC 16/10 Q1024
Conditions at: SGAS (ASUNCION/SILVIO , PY) observed 1300 UTC 23 August 2019
Temperature: 16.0°C (61°F)
Dewpoint: 10.0°C (50°F) [RH = 68%]
Pressure (altimeter): 30.24 inches Hg (1024.0 mb)
Winds: variable direction winds at 6 MPH (5 knots; 2.6 m/s)
Visibility: 6 miles ( 9 km)
Ceiling: at least 12,000 feet AGL
Clouds: sky clear below 12,000 feet AGL
Weather: no significant weather observed at this time

METAR text: SGAS 231230Z VRB04KT 9000 NSC 15/09 Q1024
Conditions at: SGAS (ASUNCION/SILVIO , PY) observed 1230 UTC 23 August 2019
Temperature: 15.0°C (59°F)
Dewpoint: 9.0°C (48°F) [RH = 67%]
Pressure (altimeter): 30.24 inches Hg (1024.0 mb)
Winds: variable direction winds at 5 MPH (4 knots; 2.1 m/s)
Visibility: 6 miles ( 9 km)
Ceiling: at least 12,000 feet AGL
Clouds: sky clear below 12,000 feet AGL
Weather: no significant weather observed at this time

METAR text: SGAS 231200Z VRB04KT 9000 NSC 14/09 Q1024
Conditions at: SGAS (ASUNCION/SILVIO , PY) observed 1200 UTC 23 August 2019
Temperature: 14.0°C (57°F)
Dewpoint: 9.0°C (48°F) [RH = 72%]
Pressure (altimeter): 30.24 inches Hg (1024.0 mb)
Winds: variable direction winds at 5 MPH (4 knots; 2.1 m/s)
Visibility: 6 miles ( 9 km)
Ceiling: at least 12,000 feet AGL
Clouds: sky clear below 12,000 feet AGL
Weather: no significant weather observed at this time

METAR text: SGAS 231130Z 22003KT 9000 NSC 12/09 Q1024
Conditions at: SGAS (ASUNCION/SILVIO , PY) observed 1130 UTC 23 August 2019
Temperature: 12.0°C (54°F)
Dewpoint: 9.0°C (48°F) [RH = 82%]
Pressure (altimeter): 30.24 inches Hg (1024.0 mb)
Winds: from the SW (220 degrees) at 3 MPH (3 knots; 1.5 m/s)
Visibility: 6 miles ( 9 km)
Ceiling: at least 12,000 feet AGL
Clouds: sky clear below 12,000 feet AGL
Weather: no significant weather observed at this time

METAR text: SGAS 231100Z 25002KT 9000 NSC 11/09 Q1023
Conditions at: SGAS (ASUNCION/SILVIO , PY) observed 1100 UTC 23 August 2019
Temperature: 11.0°C (52°F)
Dewpoint: 9.0°C (48°F) [RH = 87%]
Pressure (altimeter): 30.21 inches Hg (1023.0 mb)
Winds: from the WSW (250 degrees) at 2 MPH (2 knots; 1.0 m/s)
Visibility: 6 miles ( 9 km)
Ceiling: at least 12,000 feet AGL
Clouds: sky clear below 12,000 feet AGL
Weather: no significant weather observed at this time

METAR text: SGAS 231000Z 18005KT 9000 NSC 10/08 Q1023
Conditions at: SGAS (ASUNCION/SILVIO , PY) observed 1000 UTC 23 August 2019
Temperature: 10.0°C (50°F)
Dewpoint: 8.0°C (46°F) [RH = 87%]
Pressure (altimeter): 30.21 inches Hg (1023.0 mb)
Winds: from the S (180 degrees) at 6 MPH (5 knots; 2.6 m/s)
Visibility: 6 miles ( 9 km)
Ceiling: at least 12,000 feet AGL
Clouds: sky clear below 12,000 feet AGL
Weather: no significant weather observed at this time

METAR text: SGAS 230900Z 18008KT 150V210 9000 NSC 11/09 Q1022
Conditions at: SGAS (ASUNCION/SILVIO , PY) observed 0900 UTC 23 August 2019
Temperature: 11.0°C (52°F)
Dewpoint: 9.0°C (48°F) [RH = 87%]
Pressure (altimeter): 30.18 inches Hg (1022.0 mb)
Winds: from the S (180 degrees) at 9 MPH (8 knots; 4.1 m/s)
Visibility: 6 miles ( 9 km)
Ceiling: at least 12,000 feet AGL
Clouds: sky clear below 12,000 feet AGL
Weather: no significant weather observed at this time

METAR text: SGAS 230800Z 19005KT 9000 NSC 09/08 Q1023
Conditions at: SGAS (ASUNCION/SILVIO , PY) observed 0800 UTC 23 August 2019
Temperature: 9.0°C (48°F)
Dewpoint: 8.0°C (46°F) [RH = 93%]
Pressure (altimeter): 30.21 inches Hg (1023.0 mb)
Winds: from the S (190 degrees) at 6 MPH (5 knots; 2.6 m/s)
Visibility: 6 miles ( 9 km)
Ceiling: at least 12,000 feet AGL
Clouds: sky clear below 12,000 feet AGL
Weather: no significant weather observed at this time

METAR text: SGAS 230700Z 21007KT 9000 NSC 09/08 Q1023
Conditions at: SGAS (ASUNCION/SILVIO , PY) observed 0700 UTC 23 August 2019
Temperature: 9.0°C (48°F)
Dewpoint: 8.0°C (46°F) [RH = 93%]
Pressure (altimeter): 30.21 inches Hg (1023.0 mb)
Winds: from the SSW (210 degrees) at 8 MPH (7 knots; 3.6 m/s)
Visibility: 6 miles ( 9 km)
Ceiling: at least 12,000 feet AGL
Clouds: sky clear below 12,000 feet AGL
Weather: no significant weather observed at this time

METAR text: SGAS 230600Z 20002KT 9000 NSC 09/08 Q1023
Conditions at: SGAS (ASUNCION/SILVIO , PY) observed 0600 UTC 23 August 2019
Temperature: 9.0°C (48°F)
Dewpoint: 8.0°C (46°F) [RH = 93%]
Pressure (altimeter): 30.21 inches Hg (1023.0 mb)
Winds: from the SSW (200 degrees) at 2 MPH (2 knots; 1.0 m/s)
Visibility: 6 miles ( 9 km)
Ceiling: at least 12,000 feet AGL
Clouds: sky clear below 12,000 feet AGL
Weather: no significant weather observed at this time

METAR text: SGAS 230500Z 00000KT 9000 NSC 10/09 Q1023
Conditions at: SGAS (ASUNCION/SILVIO , PY) observed 0500 UTC 23 August 2019
Temperature: 10.0°C (50°F)
Dewpoint: 9.0°C (48°F) [RH = 93%]
Pressure (altimeter): 30.21 inches Hg (1023.0 mb)
Winds: calm
Visibility: 6 miles ( 9 km)
Ceiling: at least 12,000 feet AGL
Clouds: sky clear below 12,000 feet AGL
Weather: no significant weather observed at this time

METAR text: SGAS 230400Z 17006KT 9000 NSC 12/09 Q1024
Conditions at: SGAS (ASUNCION/SILVIO , PY) observed 0400 UTC 23 August 2019
Temperature: 12.0°C (54°F)
Dewpoint: 9.0°C (48°F) [RH = 82%]
Pressure (altimeter): 30.24 inches Hg (1024.0 mb)
Winds: from the S (170 degrees) at 7 MPH (6 knots; 3.1 m/s)
Visibility: 6 miles ( 9 km)
Ceiling: at least 12,000 feet AGL
Clouds: sky clear below 12,000 feet AGL
Weather: no significant weather observed at this time

METAR text: SGAS 230300Z 17008KT 9000 NSC 14/10 Q1024
Conditions at: SGAS (ASUNCION/SILVIO , PY) observed 0300 UTC 23 August 2019
Temperature: 14.0°C (57°F)
Dewpoint: 10.0°C (50°F) [RH = 77%]
Pressure (altimeter): 30.24 inches Hg (1024.0 mb)
Winds: from the S (170 degrees) at 9 MPH (8 knots; 4.1 m/s)
Visibility: 6 miles ( 9 km)
Ceiling: at least 12,000 feet AGL
Clouds: sky clear below 12,000 feet AGL
Weather: no significant weather observed at this time

Forecast for: SGAS (ASUNCION/SILVIO , PY)
Text: TAF SGAS 241100Z 2412/2512 00000KT CAVOK TX30/2418Z TN18/2509Z
Forecast period: 1200 to 2200 UTC 24 August 2019
Forecast type: FROM: standard forecast or significant change
Winds: calm
Visibility: 6 or more miles 10+ km)
Ceiling: unknown
Clouds: missing
Weather: no significant weather forecast for this period
Text: BECMG 2422/2500 VRB03KT 6000 NSC
Forecast period: 2200 UTC 24 August 2019 to 0900 UTC 25 August 2019
Forecast type: BECOMING: Conditions expected to become as follows by 0000 UTC 25 August 2019
Winds: variable direction winds at 3 MPH (3 knots; 1.5 m/s)
Visibility: 4 miles (6 km)
Ceiling: unknown
Clouds: missing
Weather: no significant weather forecast for this period
Text: BECMG 2509/2512 VRB03KT CAVOK
Forecast period: 0900 to 1200 UTC 25 August 2019
Forecast type: BECOMING: Conditions expected to become as follows by 1200 UTC 25 August 2019
Winds: variable direction winds at 3 MPH (3 knots; 1.5 m/s)
Visibility: 6 or more miles 10+ km)
Ceiling: unknown
Clouds: missing
Weather: NSW  (no significant weather)